Time;durP1;ratioP1;P1;durP2;ratioP2;P2;SDS_P1;SDS_P2;PMS_P1;PMS_P2;Temp;Humidity;BMP_temperature;BMP_pressure;BME280_temperature;BME280_humidity;BME280_pressure;Samples;Min_cycle;Max_cycle;Signal;HPM_P1;HPM_P2
2023/09/25 00:01:33;;;;;;;5.35;1.45;;;13.70;99.90;;;;;;5063589;28;20431;-79
2023/09/25 00:04:00;;;;;;;5.53;2.00;;;13.70;99.90;;;;;;5058458;28;20117;-79
2023/09/25 00:06:26;;;;;;;6.28;1.77;;;13.70;99.90;;;;;;5062144;28;20388;-80
2023/09/25 00:08:51;;;;;;;4.82;2.30;;;13.70;99.90;;;;;;5064624;28;20520;-79
2023/09/25 00:11:17;;;;;;;3.25;1.48;;;13.70;99.90;;;;;;5064775;28;20028;-80
2023/09/25 00:13:43;;;;;;;2.83;1.50;;;13.70;99.90;;;;;;5062781;28;20032;-80
2023/09/25 00:16:16;;;;;;;4.65;2.00;;;13.70;99.90;;;;;;5060321;28;20041;-80
2023/09/25 00:18:42;;;;;;;4.20;1.77;;;13.70;99.90;;;;;;5062303;28;20055;-79
2023/09/25 00:21:10;;;;;;;1.35;1.23;;;13.70;99.90;;;;;;5065432;28;20052;-81
2023/09/25 00:23:36;;;;;;;3.17;1.67;;;13.70;99.90;;;;;;5066055;28;20045;-79
2023/09/25 00:26:06;;;;;;;4.65;1.55;;;13.70;99.90;;;;;;5068110;28;20578;-79
2023/09/25 00:28:32;;;;;;;5.72;1.50;;;13.70;99.90;;;;;;5054221;28;20378;-79
2023/09/25 00:30:58;;;;;;;3.13;2.22;;;13.70;99.90;;;;;;5060243;28;20024;-79
2023/09/25 00:33:24;;;;;;;7.15;2.05;;;13.70;99.90;;;;;;5063561;28;20553;-79
2023/09/25 00:35:49;;;;;;;4.95;1.98;;;13.70;99.90;;;;;;5061410;28;20052;-79
2023/09/25 00:38:15;;;;;;;9.30;1.98;;;13.70;99.90;;;;;;5059620;28;20020;-78
2023/09/25 00:40:42;;;;;;;3.58;1.95;;;13.70;99.90;;;;;;5061353;28;20064;-79
2023/09/25 00:43:12;;;;;;;8.50;1.88;;;13.70;99.90;;;;;;5063378;28;20062;-80
2023/09/25 00:45:41;;;;;;;3.40;1.67;;;13.70;99.90;;;;;;5063521;28;20032;-81
2023/09/25 00:48:09;;;;;;;2.53;1.40;;;13.70;99.90;;;;;;5062672;28;20032;-79
2023/09/25 00:50:34;;;;;;;4.88;1.55;;;13.70;99.90;;;;;;5056904;28;20117;-79
2023/09/25 00:53:09;;;;;;;4.20;1.70;;;13.70;99.90;;;;;;5059389;28;20472;-79
2023/09/25 00:55:35;;;;;;;6.25;2.10;;;13.70;99.90;;;;;;5062906;28;20032;-81
2023/09/25 00:58:01;;;;;;;3.40;1.70;;;13.70;99.90;;;;;;5064685;28;20029;-79
2023/09/25 01:00:27;;;;;;;6.55;1.80;;;13.60;99.90;;;;;;5064210;28;20088;-79
2023/09/25 01:02:55;;;;;;;6.65;1.50;;;13.60;99.90;;;;;;5064983;28;20025;-80
2023/09/25 01:05:21;;;;;;;4.78;1.83;;;13.60;99.90;;;;;;5059919;28;20025;-77
2023/09/25 01:07:47;;;;;;;4.63;1.70;;;13.60;99.90;;;;;;5066467;28;20046;-79
2023/09/25 01:10:17;;;;;;;4.45;1.55;;;13.60;99.90;;;;;;5061823;28;20024;-79
2023/09/25 01:12:47;;;;;;;4.55;1.90;;;13.60;99.90;;;;;;5062706;28;20028;-79
2023/09/25 01:15:16;;;;;;;4.47;2.05;;;13.60;99.90;;;;;;5063798;28;20013;-80
2023/09/25 01:17:43;;;;;;;3.55;1.52;;;13.60;99.90;;;;;;5062168;28;20125;-79
2023/09/25 01:20:13;;;;;;;3.53;2.30;;;13.60;99.90;;;;;;5063096;28;20090;-79
2023/09/25 01:22:40;;;;;;;4.22;1.92;;;13.60;99.90;;;;;;5066199;28;20020;-80
2023/09/25 01:25:06;;;;;;;4.38;1.73;;;13.60;99.90;;;;;;5056893;28;20484;-80
2023/09/25 01:27:32;;;;;;;3.78;1.63;;;13.50;99.90;;;;;;5064211;28;20076;-79
2023/09/25 01:29:57;;;;;;;6.10;2.10;;;13.50;99.90;;;;;;5061106;28;20172;-79
2023/09/25 01:32:26;;;;;;;3.88;1.80;;;13.50;99.90;;;;;;5061516;28;20484;-80
2023/09/25 01:34:51;;;;;;;5.90;1.27;;;13.50;99.90;;;;;;5060981;28;20032;-79
2023/09/25 01:37:17;;;;;;;3.10;1.52;;;13.50;99.90;;;;;;5064085;28;20120;-79
2023/09/25 01:39:43;;;;;;;2.13;1.52;;;13.50;99.90;;;;;;5062134;28;20037;-79
2023/09/25 01:42:08;;;;;;;3.67;1.73;;;13.50;99.90;;;;;;5063906;28;20048;-79
2023/09/25 01:44:34;;;;;;;3.35;1.80;;;13.50;99.90;;;;;;5063645;28;20025;-80
2023/09/25 01:47:00;;;;;;;1.70;1.40;;;13.50;99.90;;;;;;5061453;28;20065;-79
2023/09/25 01:49:27;;;;;;;2.72;1.52;;;13.50;99.90;;;;;;5061684;28;20389;-79
2023/09/25 01:51:52;;;;;;;3.85;1.60;;;13.50;99.90;;;;;;5060050;28;20025;-79
2023/09/25 01:54:18;;;;;;;4.20;1.52;;;13.50;99.90;;;;;;5060187;28;20040;-79
2023/09/25 01:56:49;;;;;;;2.97;1.52;;;13.40;99.90;;;;;;5061808;28;20203;-80
2023/09/25 01:59:15;;;;;;;2.22;1.40;;;13.40;99.90;;;;;;5062558;28;20094;-80
2023/09/25 02:01:41;;;;;;;5.05;1.65;;;13.50;99.90;;;;;;5066428;28;20028;-80
2023/09/25 02:04:07;;;;;;;4.28;1.80;;;13.40;99.90;;;;;;5065897;28;20025;-79
2023/09/25 02:06:33;;;;;;;6.03;1.77;;;13.40;99.90;;;;;;5066244;28;20028;-79
2023/09/25 02:08:59;;;;;;;2.20;1.42;;;13.40;99.90;;;;;;5066775;28;20044;-79
2023/09/25 02:11:25;;;;;;;3.63;1.55;;;13.40;99.90;;;;;;5066826;28;20047;-79
2023/09/25 02:13:51;;;;;;;7.18;2.05;;;13.40;99.90;;;;;;5064912;28;20354;-79
2023/09/25 02:16:18;;;;;;;4.82;1.70;;;13.40;99.90;;;;;;5064998;28;20190;-80
2023/09/25 02:18:44;;;;;;;8.20;1.65;;;13.40;99.90;;;;;;5062983;28;20393;-80
2023/09/25 02:21:10;;;;;;;4.72;1.50;;;13.30;99.90;;;;;;5065079;28;20033;-79
2023/09/25 02:23:36;;;;;;;2.53;1.80;;;13.40;99.90;;;;;;5065826;28;20431;-79
2023/09/25 02:26:02;;;;;;;4.18;1.40;;;13.30;99.90;;;;;;5067037;28;20115;-79
2023/09/25 02:28:28;;;;;;;6.18;1.73;;;13.30;99.90;;;;;;5065727;28;20132;-79
2023/09/25 02:30:53;;;;;;;3.83;1.80;;;13.20;99.90;;;;;;5064234;28;20051;-79
2023/09/25 02:33:19;;;;;;;2.70;1.27;;;13.20;99.90;;;;;;5061685;28;20028;-79
2023/09/25 02:35:44;;;;;;;2.08;1.50;;;13.20;99.90;;;;;;5063512;28;20119;-80
2023/09/25 02:38:10;;;;;;;2.95;1.55;;;13.20;99.90;;;;;;5066941;28;20035;-80
2023/09/25 02:40:35;;;;;;;2.60;1.42;;;13.20;99.90;;;;;;5066091;28;20032;-80
2023/09/25 02:43:01;;;;;;;6.55;1.42;;;13.10;99.90;;;;;;5066335;28;20078;-79
2023/09/25 02:45:27;;;;;;;1.50;1.20;;;13.10;99.90;;;;;;5067860;28;20096;-79
2023/09/25 02:47:52;;;;;;;3.83;1.42;;;13.10;99.90;;;;;;5059135;28;20041;-80
2023/09/25 02:50:18;;;;;;;4.38;1.90;;;13.10;99.90;;;;;;5061854;28;20028;-79
2023/09/25 02:52:44;;;;;;;3.17;1.63;;;13.10;99.90;;;;;;5063837;28;20025;-79
2023/09/25 02:55:10;;;;;;;3.35;1.65;;;13.10;99.90;;;;;;5065564;28;20036;-80
2023/09/25 02:57:36;;;;;;;6.53;1.83;;;13.10;99.90;;;;;;5066658;28;20074;-79
2023/09/25 03:00:08;;;;;;;7.65;1.70;;;13.10;99.90;;;;;;5062380;28;20439;-80
2023/09/25 03:02:34;;;;;;;2.25;1.83;;;13.10;99.90;;;;;;5061914;28;20029;-79
2023/09/25 03:04:59;;;;;;;3.33;1.95;;;13.10;99.90;;;;;;5064799;28;20499;-79
2023/09/25 03:07:25;;;;;;;5.60;1.95;;;13.10;99.90;;;;;;5066676;28;20029;-80
2023/09/25 03:09:50;;;;;;;5.03;2.25;;;13.10;99.90;;;;;;5065163;28;20044;-79
2023/09/25 03:12:16;;;;;;;6.43;2.33;;;13.10;99.90;;;;;;5061303;28;20441;-79
2023/09/25 03:14:42;;;;;;;8.80;2.08;;;13.10;99.90;;;;;;5061436;28;20384;-79
2023/09/25 03:17:08;;;;;;;4.35;1.80;;;13.10;99.90;;;;;;5063892;28;20033;-79
2023/09/25 03:19:35;;;;;;;7.68;2.42;;;13.10;99.90;;;;;;5063543;28;20417;-80
2023/09/25 03:22:01;;;;;;;2.50;1.90;;;13.10;99.90;;;;;;5064671;28;20154;-79
2023/09/25 03:24:27;;;;;;;3.58;2.03;;;13.20;99.90;;;;;;5061643;28;20115;-79
2023/09/25 03:26:53;;;;;;;3.60;1.98;;;13.20;99.90;;;;;;5061322;28;20193;-79
2023/09/25 03:29:18;;;;;;;5.60;2.50;;;13.20;99.90;;;;;;5058827;28;20053;-79
2023/09/25 03:31:44;;;;;;;6.25;2.17;;;13.20;99.90;;;;;;5060743;28;20036;-79
2023/09/25 03:34:10;;;;;;;3.08;1.73;;;13.20;99.90;;;;;;5061110;28;20024;-79
2023/09/25 03:36:35;;;;;;;4.25;2.25;;;13.20;99.90;;;;;;5057229;28;20119;-80
2023/09/25 03:39:01;;;;;;;4.00;1.60;;;13.20;99.90;;;;;;5058746;28;20020;-78
2023/09/25 03:41:27;;;;;;;4.22;1.67;;;13.20;99.90;;;;;;5061873;28;20047;-80
2023/09/25 03:43:52;;;;;;;3.50;2.00;;;13.20;99.90;;;;;;5068483;28;20258;-79
2023/09/25 03:46:21;;;;;;;8.15;2.63;;;13.10;99.90;;;;;;5066002;28;20111;-80
2023/09/25 03:48:47;;;;;;;3.60;2.03;;;13.10;99.90;;;;;;5063711;28;20047;-79
2023/09/25 03:51:13;;;;;;;5.97;2.30;;;13.10;99.90;;;;;;5065045;28;20737;-80
2023/09/25 03:53:41;;;;;;;4.05;2.10;;;13.10;99.90;;;;;;5066908;28;20465;-80
2023/09/25 03:56:07;;;;;;;7.65;1.98;;;13.10;99.90;;;;;;5067040;28;20512;-80
2023/09/25 03:58:32;;;;;;;5.32;2.70;;;13.10;99.90;;;;;;5066611;28;20031;-81
2023/09/25 04:01:01;;;;;;;4.57;2.50;;;13.10;99.90;;;;;;5063422;28;20074;-80
2023/09/25 04:03:27;;;;;;;9.57;2.85;;;13.10;99.90;;;;;;5065473;28;20032;-80
2023/09/25 04:05:52;;;;;;;4.70;2.30;;;13.00;99.90;;;;;;5066666;28;20079;-80
2023/09/25 04:08:18;;;;;;;3.30;2.05;;;13.00;99.90;;;;;;5065217;28;20096;-80
2023/09/25 04:10:43;;;;;;;2.40;2.20;;;13.00;99.90;;;;;;5065942;28;20469;-79
2023/09/25 04:13:10;;;;;;;6.43;3.35;;;13.00;99.90;;;;;;5066007;28;20032;-80
2023/09/25 04:15:37;;;;;;;3.42;2.10;;;13.00;99.90;;;;;;5065151;28;20540;-79
2023/09/25 04:18:06;;;;;;;2.85;2.15;;;13.00;99.90;;;;;;5066981;28;20052;-79
2023/09/25 04:20:32;;;;;;;2.38;1.92;;;13.00;99.90;;;;;;5066297;28;20032;-79
2023/09/25 04:22:58;;;;;;;8.43;2.55;;;12.90;99.90;;;;;;5064551;28;20048;-80
2023/09/25 04:25:24;;;;;;;6.60;2.30;;;12.90;99.90;;;;;;5064158;28;20048;-79
2023/09/25 04:27:55;;;;;;;4.78;3.03;;;12.80;99.90;;;;;;5062002;28;20054;-86
2023/09/25 04:30:23;;;;;;;2.13;1.92;;;12.90;99.90;;;;;;5060859;28;20124;-79
2023/09/25 04:32:55;;;;;;;9.07;3.80;;;12.80;99.90;;;;;;5054782;28;20029;-80
2023/09/25 04:35:21;;;;;;;13.65;2.55;;;12.70;99.90;;;;;;5055535;28;20025;-79
2023/09/25 04:37:46;;;;;;;4.72;2.22;;;12.70;99.90;;;;;;5064065;28;20028;-80
2023/09/25 04:40:22;;;;;;;4.13;2.83;;;12.70;99.90;;;;;;5059416;28;20033;-80
2023/09/25 04:42:52;;;;;;;7.90;2.67;;;12.60;99.90;;;;;;5058554;28;20033;-80
2023/09/25 04:45:18;;;;;;;5.88;2.40;;;12.60;99.90;;;;;;5063061;28;20395;-79
2023/09/25 04:47:47;;;;;;;3.47;1.90;;;12.70;99.90;;;;;;5065407;28;20023;-80
2023/09/25 04:50:14;;;;;;;4.80;2.42;;;12.60;99.90;;;;;;5061032;28;20048;-80
2023/09/25 04:52:40;;;;;;;6.70;2.40;;;12.60;99.90;;;;;;5065137;28;20440;-80
2023/09/25 04:55:11;;;;;;;7.03;2.85;;;12.60;99.90;;;;;;5059835;28;20040;-80
2023/09/25 04:57:44;;;;;;;7.20;2.67;;;12.60;99.90;;;;;;5065717;28;20128;-80
2023/09/25 05:00:25;;;;;;;11.82;2.65;;;12.50;99.90;;;;;;5056139;28;20512;-80
2023/09/25 05:02:52;;;;;;;6.50;2.78;;;12.50;99.90;;;;;;5059961;28;20052;-79
2023/09/25 05:05:18;;;;;;;4.22;2.30;;;12.50;99.90;;;;;;5062214;28;20032;-80
2023/09/25 05:07:47;;;;;;;8.05;2.80;;;12.50;99.90;;;;;;5063247;28;20032;-80
2023/09/25 05:10:15;;;;;;;7.43;3.00;;;12.50;99.90;;;;;;5063438;28;20074;-80
2023/09/25 05:12:43;;;;;;;4.60;2.55;;;12.50;99.90;;;;;;5061462;28;20358;-80
2023/09/25 05:15:10;;;;;;;3.70;2.17;;;12.50;99.90;;;;;;5060163;28;20507;-80
2023/09/25 05:17:37;;;;;;;5.90;2.80;;;12.50;99.90;;;;;;5057593;28;20025;-80
2023/09/25 05:20:10;;;;;;;3.28;2.30;;;12.50;99.90;;;;;;5058971;28;20028;-80
2023/09/25 05:22:40;;;;;;;7.97;2.63;;;12.40;99.90;;;;;;5057018;28;20033;-80
2023/09/25 05:25:07;;;;;;;7.00;2.90;;;12.50;99.90;;;;;;5056179;28;20033;-80
2023/09/25 05:27:34;;;;;;;5.00;2.83;;;12.50;99.90;;;;;;5059966;28;20061;-80
2023/09/25 05:30:00;;;;;;;5.32;2.40;;;12.50;99.90;;;;;;5059845;28;20050;-80
2023/09/25 05:32:26;;;;;;;4.95;2.63;;;12.40;99.90;;;;;;5061466;28;20031;-81
2023/09/25 05:34:51;;;;;;;6.72;2.75;;;12.40;99.90;;;;;;5061704;28;20024;-80
2023/09/25 05:37:18;;;;;;;7.72;2.80;;;12.50;99.90;;;;;;5064895;28;20423;-80
2023/09/25 05:39:44;;;;;;;4.03;2.72;;;12.50;99.90;;;;;;5063026;28;20119;-80
2023/09/25 05:42:09;;;;;;;3.35;2.90;;;12.60;99.90;;;;;;5063808;28;20495;-80
2023/09/25 05:44:36;;;;;;;6.32;3.40;;;12.60;99.90;;;;;;5063382;28;20033;-80
2023/09/25 05:47:02;;;;;;;8.50;2.83;;;12.60;99.90;;;;;;5055889;28;20112;-79
2023/09/25 05:49:27;;;;;;;7.22;3.15;;;12.60;99.90;;;;;;5064316;28;20049;-79
2023/09/25 05:51:53;;;;;;;6.13;2.83;;;12.60;99.90;;;;;;5063638;28;20039;-80
2023/09/25 05:54:22;;;;;;;8.82;2.45;;;12.60;99.90;;;;;;5064858;28;20033;-80
2023/09/25 05:56:49;;;;;;;3.28;2.97;;;12.60;99.90;;;;;;5063325;28;20037;-79
2023/09/25 05:59:15;;;;;;;11.35;3.22;;;12.70;99.90;;;;;;5064199;28;20492;-80
2023/09/25 06:01:42;;;;;;;5.50;2.60;;;12.70;99.90;;;;;;5061537;28;20032;-79
2023/09/25 06:04:12;;;;;;;8.68;2.80;;;12.70;99.90;;;;;;5060943;28;20446;-79
2023/09/25 06:06:39;;;;;;;5.38;2.97;;;12.70;99.90;;;;;;5062098;28;20428;-80
2023/09/25 06:09:08;;;;;;;4.32;2.55;;;12.70;99.90;;;;;;5057870;28;20036;-79
2023/09/25 06:11:37;;;;;;;5.43;2.60;;;12.80;99.90;;;;;;5061499;28;20024;-79
2023/09/25 06:14:07;;;;;;;6.07;2.60;;;12.80;99.90;;;;;;5062625;28;20032;-79
2023/09/25 06:16:33;;;;;;;9.25;2.78;;;12.80;99.90;;;;;;5059156;28;20500;-80
2023/09/25 06:18:59;;;;;;;8.50;2.75;;;12.80;99.90;;;;;;5060600;28;20048;-80
2023/09/25 06:21:25;;;;;;;3.20;2.67;;;12.80;99.90;;;;;;5063126;28;20425;-79
2023/09/25 06:23:50;;;;;;;11.30;2.85;;;12.90;99.90;;;;;;5063714;28;20024;-79
2023/09/25 06:26:16;;;;;;;7.53;2.72;;;12.90;99.90;;;;;;5064148;28;20039;-80
2023/09/25 06:28:42;;;;;;;4.32;2.60;;;12.90;99.90;;;;;;5061941;28;20048;-78
2023/09/25 06:31:08;;;;;;;6.93;2.40;;;13.00;99.90;;;;;;5062982;28;20032;-80
2023/09/25 06:33:35;;;;;;;3.10;2.10;;;13.00;99.90;;;;;;5063340;28;20033;-80
2023/09/25 06:36:00;;;;;;;3.63;1.90;;;13.10;99.90;;;;;;5061055;28;20396;-80
2023/09/25 06:38:26;;;;;;;8.23;2.20;;;13.10;99.90;;;;;;5064088;28;20025;-80
2023/09/25 06:40:52;;;;;;;2.92;2.05;;;13.20;99.90;;;;;;5062097;28;20122;-80
2023/09/25 06:43:17;;;;;;;3.53;1.88;;;13.20;99.90;;;;;;5062821;28;20086;-80
2023/09/25 06:45:44;;;;;;;3.45;1.70;;;13.30;99.90;;;;;;5061590;28;20025;-80
2023/09/25 06:48:10;;;;;;;4.40;1.85;;;13.30;99.90;;;;;;5062017;28;20056;-80
2023/09/25 06:50:35;;;;;;;3.20;1.60;;;13.30;99.90;;;;;;5065401;28;20025;-80
2023/09/25 06:53:03;;;;;;;7.63;1.95;;;13.30;99.90;;;;;;5060057;28;20035;-80
2023/09/25 06:55:30;;;;;;;8.63;1.90;;;13.40;99.90;;;;;;5065708;28;20625;-80
2023/09/25 06:57:56;;;;;;;7.43;2.20;;;13.40;99.90;;;;;;5064063;28;20032;-80
2023/09/25 07:00:23;;;;;;;5.43;1.80;;;13.50;99.90;;;;;;5063843;28;20536;-80
2023/09/25 07:02:50;;;;;;;4.88;1.67;;;13.50;99.90;;;;;;5064536;28;20560;-80
2023/09/25 07:05:16;;;;;;;4.28;1.90;;;13.50;99.90;;;;;;5064129;28;20036;-80
2023/09/25 07:07:42;;;;;;;4.22;1.90;;;13.60;99.90;;;;;;5063605;28;20028;-80
2023/09/25 07:10:11;;;;;;;7.18;1.85;;;13.70;99.90;;;;;;5064929;28;20123;-80
2023/09/25 07:12:38;;;;;;;2.35;1.83;;;13.80;99.90;;;;;;5064275;28;20389;-80
2023/09/25 07:15:05;;;;;;;12.45;2.28;;;13.80;99.90;;;;;;5065297;28;20040;-79
2023/09/25 07:17:30;;;;;;;2.60;1.60;;;13.90;99.90;;;;;;5065447;28;20025;-80
2023/09/25 07:19:56;;;;;;;5.80;1.80;;;13.90;99.90;;;;;;5067952;28;20028;-80
2023/09/25 07:22:24;;;;;;;5.95;1.70;;;13.90;99.90;;;;;;5066123;28;20423;-79
2023/09/25 07:24:50;;;;;;;2.72;1.73;;;13.90;99.90;;;;;;5066124;28;20032;-80
2023/09/25 07:27:16;;;;;;;7.30;1.77;;;14.00;99.90;;;;;;5065315;28;21993;-80
2023/09/25 07:29:46;;;;;;;4.88;1.80;;;14.00;99.90;;;;;;5063137;28;20049;-79
2023/09/25 07:32:12;;;;;;;4.30;1.48;;;14.10;99.90;;;;;;5057422;28;20112;-80
2023/09/25 07:34:45;;;;;;;2.53;1.55;;;14.10;99.90;;;;;;5063657;28;20016;-80
2023/09/25 07:37:19;;;;;;;3.83;1.58;;;14.20;99.90;;;;;;5063294;28;20033;-80
2023/09/25 07:39:45;;;;;;;3.55;1.52;;;14.20;99.90;;;;;;5057715;28;20492;-80
2023/09/25 07:42:12;;;;;;;2.97;1.50;;;14.20;99.90;;;;;;5067081;28;20052;-80
2023/09/25 07:44:38;;;;;;;3.25;1.50;;;14.20;99.90;;;;;;5064424;28;20058;-80
2023/09/25 07:47:10;;;;;;;3.97;1.50;;;14.30;99.90;;;;;;5066512;28;20437;-80
2023/09/25 07:49:40;;;;;;;1.60;1.45;;;14.40;99.90;;;;;;5067432;28;20277;-80
2023/09/25 07:52:15;;;;;;;1.92;1.70;;;14.50;99.90;;;;;;5065631;28;20040;-80
2023/09/25 07:54:44;;;;;;;2.13;1.42;;;14.60;99.90;;;;;;5066561;28;20033;-80
2023/09/25 07:57:14;;;;;;;2.05;1.38;;;14.60;99.90;;;;;;5064195;28;20028;-80
2023/09/25 07:59:41;;;;;;;3.80;1.45;;;14.60;99.90;;;;;;5062873;28;20028;-80
2023/09/25 08:02:12;;;;;;;2.67;1.67;;;14.60;99.90;;;;;;5062745;28;20025;-80
2023/09/25 08:04:39;;;;;;;2.55;1.70;;;14.70;99.90;;;;;;5056569;28;20094;-80
2023/09/25 08:07:04;;;;;;;3.05;1.58;;;14.70;99.90;;;;;;5063749;28;20037;-80
2023/09/25 08:09:31;;;;;;;8.10;2.00;;;14.80;99.90;;;;;;5062979;28;20044;-79
2023/09/25 08:11:57;;;;;;;2.70;1.70;;;14.80;99.90;;;;;;5065094;28;20104;-80
2023/09/25 08:14:23;;;;;;;8.98;1.50;;;14.90;99.90;;;;;;5065442;28;20541;-80
2023/09/25 08:16:49;;;;;;;2.42;1.52;;;14.90;99.90;;;;;;5064690;28;20024;-80
2023/09/25 08:19:17;;;;;;;4.03;2.25;;;14.90;99.90;;;;;;5066137;28;20025;-80
2023/09/25 08:21:43;;;;;;;5.57;2.10;;;14.90;99.90;;;;;;5065369;28;20021;-80
2023/09/25 08:24:09;;;;;;;4.03;1.60;;;14.90;99.90;;;;;;5067343;28;20636;-80
2023/09/25 08:26:35;;;;;;;4.90;1.45;;;14.90;99.90;;;;;;5060296;28;20044;-80
2023/09/25 08:29:05;;;;;;;5.40;1.40;;;14.90;99.90;;;;;;5056526;28;20076;-80
2023/09/25 08:31:31;;;;;;;7.53;1.60;;;15.00;99.90;;;;;;5059504;28;20024;-80
2023/09/25 08:33:57;;;;;;;7.25;1.40;;;15.00;99.90;;;;;;5063636;28;20020;-80
2023/09/25 08:36:23;;;;;;;7.05;1.52;;;15.10;99.90;;;;;;5062684;28;20025;-80
2023/09/25 08:38:48;;;;;;;2.50;1.40;;;15.10;99.90;;;;;;5062076;28;20028;-80
2023/09/25 08:41:19;;;;;;;3.28;1.58;;;15.10;99.90;;;;;;5062701;28;20365;-80
2023/09/25 08:43:46;;;;;;;3.55;1.23;;;15.10;99.90;;;;;;5062829;28;20039;-80
2023/09/25 08:46:13;;;;;;;2.13;1.60;;;15.20;99.90;;;;;;5064736;28;20056;-80
2023/09/25 08:48:38;;;;;;;4.65;2.05;;;15.30;99.90;;;;;;5063641;28;20049;-80
2023/09/25 08:51:05;;;;;;;3.20;1.45;;;15.30;99.90;;;;;;5065147;28;20085;-80
2023/09/25 08:53:31;;;;;;;2.55;1.40;;;15.40;99.90;;;;;;5065341;28;20060;-80
2023/09/25 08:55:56;;;;;;;6.63;1.92;;;15.50;99.90;;;;;;5063742;28;20054;-80
2023/09/25 08:58:26;;;;;;;3.35;1.80;;;15.50;99.90;;;;;;5064496;28;20028;-81
2023/09/25 09:00:53;;;;;;;8.07;1.75;;;15.60;99.90;;;;;;5062409;28;20384;-80
2023/09/25 09:03:19;;;;;;;3.63;1.55;;;15.60;99.90;;;;;;5061848;28;20032;-80
2023/09/25 09:05:46;;;;;;;6.38;1.48;;;15.70;99.90;;;;;;5061320;28;20016;-80
2023/09/25 09:08:16;;;;;;;2.97;1.88;;;15.70;99.90;;;;;;5064132;28;20481;-80
2023/09/25 09:10:41;;;;;;;5.35;1.92;;;15.90;99.90;;;;;;5061938;28;20021;-80
2023/09/25 09:13:10;;;;;;;1.90;1.17;;;15.90;99.90;;;;;;5065062;28;20507;-81
2023/09/25 09:15:39;;;;;;;3.03;1.63;;;15.90;99.90;;;;;;5054218;28;20100;-80
2023/09/25 09:18:25;;;;;;;3.58;1.70;;;16.00;99.90;;;;;;5056852;28;20037;-80
2023/09/25 09:20:51;;;;;;;5.15;1.92;;;16.00;99.90;;;;;;5062272;28;20029;-80
2023/09/25 09:23:17;;;;;;;4.47;1.95;;;16.10;99.90;;;;;;5064266;28;20114;-80
2023/09/25 09:25:51;;;;;;;4.43;2.15;;;16.20;99.90;;;;;;5063393;28;20590;-80
2023/09/25 09:28:17;;;;;;;4.22;1.92;;;16.30;99.90;;;;;;5062356;28;20154;-80
2023/09/25 09:30:43;;;;;;;4.57;2.47;;;16.30;99.90;;;;;;5061216;28;20048;-80
2023/09/25 09:33:10;;;;;;;3.90;1.83;;;16.40;99.90;;;;;;5056349;28;20028;-81
2023/09/25 09:35:36;;;;;;;5.22;1.50;;;16.40;99.90;;;;;;5061786;28;20477;-80
2023/09/25 09:38:02;;;;;;;4.55;1.35;;;16.40;99.90;;;;;;5064732;28;20051;-80
2023/09/25 09:40:30;;;;;;;2.50;1.33;;;16.50;99.90;;;;;;5064046;28;20078;-79
2023/09/25 09:42:56;;;;;;;1.42;1.15;;;16.60;99.90;;;;;;5063260;28;20090;-81
2023/09/25 09:45:22;;;;;;;2.90;1.15;;;16.70;99.90;;;;;;5063771;28;20032;-81
2023/09/25 09:47:51;;;;;;;2.25;1.20;;;16.70;99.90;;;;;;5063017;28;20025;-80
2023/09/25 09:50:27;;;;;;;1.65;0.93;;;16.80;99.90;;;;;;5061804;28;20032;-80
2023/09/25 09:52:53;;;;;;;1.52;1.13;;;16.90;99.90;;;;;;5061686;28;20054;-80
2023/09/25 09:55:21;;;;;;;2.92;1.35;;;16.90;99.90;;;;;;5061052;28;20115;-80
2023/09/25 09:57:48;;;;;;;2.80;1.15;;;17.00;99.90;;;;;;5061000;28;20036;-80
2023/09/25 10:00:15;;;;;;;3.30;1.23;;;17.20;99.90;;;;;;5061571;28;20583;-81
2023/09/25 10:02:41;;;;;;;3.30;1.50;;;17.40;99.90;;;;;;5060958;28;20056;-80
2023/09/25 10:05:10;;;;;;;2.50;1.05;;;17.40;99.90;;;;;;5064474;28;20052;-80
2023/09/25 10:08:22;;;;;;;5.72;1.20;;;17.50;99.90;;;;;;5055158;28;20024;-81
2023/09/25 10:10:51;;;;;;;1.58;1.13;;;17.60;99.90;;;;;;5061293;28;20240;-79
2023/09/25 10:13:22;;;;;;;2.58;1.23;;;17.50;99.90;;;;;;5064710;28;20115;-80
2023/09/25 10:15:53;;;;;;;4.20;1.00;;;17.60;99.90;;;;;;5063121;28;20075;-79
2023/09/25 10:18:21;;;;;;;3.92;1.58;;;17.60;99.90;;;;;;5064400;28;20035;-81
2023/09/25 10:20:48;;;;;;;4.75;1.40;;;17.60;99.90;;;;;;5059702;28;20417;-80
2023/09/25 10:23:23;;;;;;;6.47;1.63;;;17.60;99.90;;;;;;5066478;28;20503;-80
2023/09/25 10:26:05;;;;;;;4.80;1.23;;;17.70;99.90;;;;;;5060474;28;20028;-82
2023/09/25 10:28:33;;;;;;;1.52;1.25;;;17.70;99.90;;;;;;5062823;28;20044;-79
2023/09/25 10:31:00;;;;;;;5.32;1.38;;;17.70;99.90;;;;;;5065543;28;20067;-79
2023/09/25 10:33:33;;;;;;;3.20;1.30;;;17.80;99.90;;;;;;5064480;28;20039;-81
2023/09/25 10:36:04;;;;;;;1.23;1.13;;;17.80;99.90;;;;;;5064075;28;20435;-79
2023/09/25 10:38:33;;;;;;;3.50;1.30;;;17.80;99.90;;;;;;5063384;28;20067;-80
2023/09/25 10:41:06;;;;;;;3.58;1.42;;;17.90;99.90;;;;;;5067578;28;20024;-80
2023/09/25 10:43:34;;;;;;;2.45;1.38;;;17.90;99.90;;;;;;5065616;28;20477;-81
2023/09/25 10:46:00;;;;;;;4.68;2.00;;;18.00;99.90;;;;;;5066865;28;20039;-81
2023/09/25 10:48:27;;;;;;;4.95;1.30;;;18.00;99.90;;;;;;5066477;28;20055;-81
2023/09/25 10:50:54;;;;;;;1.55;1.15;;;18.10;99.90;;;;;;5065108;28;20021;-81
2023/09/25 10:53:21;;;;;;;6.15;1.50;;;18.10;99.90;;;;;;5066916;28;20131;-80
2023/09/25 10:55:47;;;;;;;2.03;1.23;;;18.10;99.90;;;;;;5065781;28;20497;-80
2023/09/25 10:58:14;;;;;;;2.47;1.55;;;18.20;99.90;;;;;;5061571;28;20108;-81
2023/09/25 11:00:42;;;;;;;3.72;1.42;;;18.30;99.90;;;;;;5066208;28;20025;-82
2023/09/25 11:03:08;;;;;;;2.10;1.20;;;18.40;99.90;;;;;;5059107;28;20068;-80
2023/09/25 11:05:39;;;;;;;713.85;42.80;;;18.50;99.90;;;;;;5067356;28;20472;-81
2023/09/25 11:08:05;;;;;;;33.53;3.55;;;18.50;99.90;;;;;;5059359;28;20032;-81
2023/09/25 11:10:34;;;;;;;3.50;1.40;;;18.40;99.90;;;;;;5066899;28;20029;-81
2023/09/25 11:13:00;;;;;;;5.35;1.27;;;18.50;99.90;;;;;;5065108;28;20020;-82
2023/09/25 11:15:28;;;;;;;2.55;1.60;;;18.50;99.90;;;;;;5060009;28;20529;-80
2023/09/25 11:17:57;;;;;;;9.50;2.25;;;18.50;99.90;;;;;;5062102;28;20025;-80
2023/09/25 11:20:33;;;;;;;1.85;1.35;;;18.50;99.90;;;;;;5064412;28;20040;-80
2023/09/25 11:23:09;;;;;;;2.38;1.52;;;18.50;99.90;;;;;;5063741;28;20024;-80
2023/09/25 11:25:46;;;;;;;1.42;1.33;;;18.50;99.90;;;;;;5063135;28;20032;-80
2023/09/25 11:28:24;;;;;;;2.65;1.60;;;18.50;99.90;;;;;;5064835;28;20405;-79
2023/09/25 11:30:50;;;;;;;4.50;1.55;;;18.50;99.90;;;;;;5067882;28;20032;-81
2023/09/25 11:33:18;;;;;;;4.00;1.80;;;18.60;99.90;;;;;;5065543;28;20040;-79
2023/09/25 11:35:49;;;;;;;3.17;1.30;;;18.60;99.90;;;;;;5064570;28;20028;-80
2023/09/25 11:38:21;;;;;;;2.58;1.88;;;18.70;99.90;;;;;;5066001;28;20036;-81
2023/09/25 11:40:50;;;;;;;4.03;1.40;;;18.70;99.90;;;;;;5064604;28;20063;-81
2023/09/25 11:43:16;;;;;;;4.53;1.70;;;18.70;99.90;;;;;;5066688;28;20073;-81
2023/09/25 11:45:42;;;;;;;4.20;1.55;;;18.80;99.90;;;;;;5064778;28;20061;-80
2023/09/25 11:48:14;;;;;;;5.00;1.60;;;18.90;99.90;;;;;;5065762;28;20066;-81
2023/09/25 11:50:40;;;;;;;1.70;1.55;;;19.00;99.90;;;;;;5064929;28;20032;-82
2023/09/25 11:53:06;;;;;;;3.78;1.70;;;19.00;99.90;;;;;;5066123;28;20074;-81
2023/09/25 11:55:33;;;;;;;1.70;1.52;;;19.00;99.90;;;;;;5065127;28;20034;-81
2023/09/25 11:57:58;;;;;;;6.38;1.75;;;19.10;99.90;;;;;;5062860;28;20088;-81
2023/09/25 12:00:27;;;;;;;3.25;1.60;;;19.10;99.90;;;;;;5063292;28;20498;-80
2023/09/25 12:02:57;;;;;;;4.18;1.63;;;19.20;99.90;;;;;;5062800;28;20632;-81
2023/09/25 12:05:24;;;;;;;2.53;1.90;;;19.20;99.90;;;;;;5064311;28;20033;-81
2023/09/25 12:07:50;;;;;;;1.95;1.75;;;19.10;99.90;;;;;;5063159;28;20082;-78
2023/09/25 12:10:17;;;;;;;2.45;1.50;;;19.10;99.90;;;;;;5065830;28;20036;-78
2023/09/25 12:12:45;;;;;;;3.15;1.60;;;19.20;99.90;;;;;;5065144;28;20028;-78
2023/09/25 12:15:17;;;;;;;4.75;2.03;;;19.30;99.90;;;;;;5066330;28;20476;-77
2023/09/25 12:17:46;;;;;;;1.63;1.38;;;19.40;99.90;;;;;;5063902;28;20056;-77
2023/09/25 12:20:14;;;;;;;3.97;1.55;;;19.40;99.90;;;;;;5065852;28;20033;-78
2023/09/25 12:22:41;;;;;;;8.98;1.40;;;19.50;99.90;;;;;;5057983;28;20107;-78
2023/09/25 12:25:09;;;;;;;1.95;1.42;;;19.50;99.90;;;;;;5065067;28;20047;-79
2023/09/25 12:27:36;;;;;;;3.30;1.70;;;19.60;99.90;;;;;;5065386;28;20086;-79
2023/09/25 12:30:03;;;;;;;3.75;1.50;;;19.60;99.90;;;;;;5064107;28;20037;-77
2023/09/25 12:32:31;;;;;;;2.35;1.20;;;19.70;99.90;;;;;;5065247;28;20028;-78
2023/09/25 12:34:57;;;;;;;4.80;1.80;;;19.80;99.90;;;;;;5063944;28;20257;-79
2023/09/25 12:37:25;;;;;;;5.50;1.50;;;19.90;99.90;;;;;;5062049;28;20267;-78
2023/09/25 12:39:51;;;;;;;3.50;1.25;;;20.00;99.90;;;;;;5062010;28;20554;-78
2023/09/25 12:42:17;;;;;;;2.47;1.58;;;20.00;99.90;;;;;;5062849;28;20033;-77
2023/09/25 12:44:42;;;;;;;2.00;1.45;;;20.10;99.90;;;;;;5061951;28;20040;-78
2023/09/25 12:47:08;;;;;;;1.60;1.50;;;20.10;99.90;;;;;;5063854;28;20096;-79